sensor_id;sensor_type;location;lat;lon;timestamp;temperature;humidity
50969;DHT22;36982;51.474;7.228;2023-02-15T00:02:24;4.40;80.10
50969;DHT22;36982;51.474;7.228;2023-02-15T00:04:50;4.30;81.40
50969;DHT22;36982;51.474;7.228;2023-02-15T00:07:17;4.40;80.70
50969;DHT22;36982;51.474;7.228;2023-02-15T00:09:45;4.30;77.50
50969;DHT22;36982;51.474;7.228;2023-02-15T00:12:11;4.30;77.80
50969;DHT22;36982;51.474;7.228;2023-02-15T00:14:37;4.20;81.30
50969;DHT22;36982;51.474;7.228;2023-02-15T00:17:02;4.30;80.30
50969;DHT22;36982;51.474;7.228;2023-02-15T00:19:28;4.10;84.00
50969;DHT22;36982;51.474;7.228;2023-02-15T00:21:54;4.10;84.20
50969;DHT22;36982;51.474;7.228;2023-02-15T00:24:19;4.00;88.50
50969;DHT22;36982;51.474;7.228;2023-02-15T00:26:46;4.00;90.40
50969;DHT22;36982;51.474;7.228;2023-02-15T00:29:13;3.90;90.10
50969;DHT22;36982;51.474;7.228;2023-02-15T00:31:39;3.90;90.80
50969;DHT22;36982;51.474;7.228;2023-02-15T00:34:21;4.00;91.40
50969;DHT22;36982;51.474;7.228;2023-02-15T00:36:47;3.80;92.50
50969;DHT22;36982;51.474;7.228;2023-02-15T00:39:14;3.90;93.30
50969;DHT22;36982;51.474;7.228;2023-02-15T00:41:40;4.00;86.80
50969;DHT22;36982;51.474;7.228;2023-02-15T00:44:06;4.00;85.40
50969;DHT22;36982;51.474;7.228;2023-02-15T00:46:32;4.10;84.50
50969;DHT22;36982;51.474;7.228;2023-02-15T00:48:58;4.10;81.20
50969;DHT22;36982;51.474;7.228;2023-02-15T00:51:24;4.00;85.00
50969;DHT22;36982;51.474;7.228;2023-02-15T00:53:49;4.10;77.90
50969;DHT22;36982;51.474;7.228;2023-02-15T00:56:15;4.00;82.50
50969;DHT22;36982;51.474;7.228;2023-02-15T00:58:41;4.00;75.80
50969;DHT22;36982;51.474;7.228;2023-02-15T01:01:13;4.00;76.40
50969;DHT22;36982;51.474;7.228;2023-02-15T01:03:39;4.10;75.60
50969;DHT22;36982;51.474;7.228;2023-02-15T01:06:07;4.10;75.30
50969;DHT22;36982;51.474;7.228;2023-02-15T01:08:33;4.20;70.80
50969;DHT22;36982;51.474;7.228;2023-02-15T01:11:08;4.10;68.80
50969;DHT22;36982;51.474;7.228;2023-02-15T01:13:34;4.00;73.50
50969;DHT22;36982;51.474;7.228;2023-02-15T01:16:00;3.90;80.40
50969;DHT22;36982;51.474;7.228;2023-02-15T01:18:26;3.80;79.80
50969;DHT22;36982;51.474;7.228;2023-02-15T01:20:52;3.90;81.20
50969;DHT22;36982;51.474;7.228;2023-02-15T01:23:18;3.80;81.90
50969;DHT22;36982;51.474;7.228;2023-02-15T01:25:44;3.80;81.90
50969;DHT22;36982;51.474;7.228;2023-02-15T01:28:09;3.60;80.80
50969;DHT22;36982;51.474;7.228;2023-02-15T01:30:35;3.60;90.20
50969;DHT22;36982;51.474;7.228;2023-02-15T01:33:00;3.70;86.20
50969;DHT22;36982;51.474;7.228;2023-02-15T01:35:27;3.70;83.30
50969;DHT22;36982;51.474;7.228;2023-02-15T01:37:54;3.70;81.60
50969;DHT22;36982;51.474;7.228;2023-02-15T01:40:20;3.70;80.60
50969;DHT22;36982;51.474;7.228;2023-02-15T01:42:50;3.70;80.50
50969;DHT22;36982;51.474;7.228;2023-02-15T01:45:23;3.80;79.00
50969;DHT22;36982;51.474;7.228;2023-02-15T01:50:36;3.70;74.90
50969;DHT22;36982;51.474;7.228;2023-02-15T01:55:45;3.60;80.70
50969;DHT22;36982;51.474;7.228;2023-02-15T01:58:12;3.50;81.20
50969;DHT22;36982;51.474;7.228;2023-02-15T02:00:39;3.50;85.50
50969;DHT22;36982;51.474;7.228;2023-02-15T02:03:05;3.60;87.20
50969;DHT22;36982;51.474;7.228;2023-02-15T02:05:31;3.50;87.40
50969;DHT22;36982;51.474;7.228;2023-02-15T02:07:59;3.50;85.80
50969;DHT22;36982;51.474;7.228;2023-02-15T02:10:26;3.50;84.20
50969;DHT22;36982;51.474;7.228;2023-02-15T02:12:57;3.40;82.30
50969;DHT22;36982;51.474;7.228;2023-02-15T02:15:47;3.30;88.70
50969;DHT22;36982;51.474;7.228;2023-02-15T02:21:19;3.20;92.70
50969;DHT22;36982;51.474;7.228;2023-02-15T02:38:32;3.40;86.50
50969;DHT22;36982;51.474;7.228;2023-02-15T02:44:02;3.50;84.60
50969;DHT22;36982;51.474;7.228;2023-02-15T02:46:54;3.40;82.20
50969;DHT22;36982;51.474;7.228;2023-02-15T02:49:37;3.30;90.00
50969;DHT22;36982;51.474;7.228;2023-02-15T02:52:07;3.40;84.00
50969;DHT22;36982;51.474;7.228;2023-02-15T02:54:34;3.50;81.10
50969;DHT22;36982;51.474;7.228;2023-02-15T02:57:04;3.40;79.10
50969;DHT22;36982;51.474;7.228;2023-02-15T02:59:34;3.40;77.10
50969;DHT22;36982;51.474;7.228;2023-02-15T03:02:03;3.30;81.60
50969;DHT22;36982;51.474;7.228;2023-02-15T03:04:32;3.20;88.10
50969;DHT22;36982;51.474;7.228;2023-02-15T03:07:02;3.20;88.60
50969;DHT22;36982;51.474;7.228;2023-02-15T03:09:39;3.20;87.80
50969;DHT22;36982;51.474;7.228;2023-02-15T03:12:11;3.20;88.70
50969;DHT22;36982;51.474;7.228;2023-02-15T03:14:39;3.20;90.00
50969;DHT22;36982;51.474;7.228;2023-02-15T03:17:07;3.10;89.00
50969;DHT22;36982;51.474;7.228;2023-02-15T03:19:35;3.10;89.70
50969;DHT22;36982;51.474;7.228;2023-02-15T03:22:30;3.20;89.60
50969;DHT22;36982;51.474;7.228;2023-02-15T03:27:49;3.20;87.20
50969;DHT22;36982;51.474;7.228;2023-02-15T03:30:18;3.10;90.00
50969;DHT22;36982;51.474;7.228;2023-02-15T03:32:47;3.00;91.50
50969;DHT22;36982;51.474;7.228;2023-02-15T03:35:13;2.90;92.90
50969;DHT22;36982;51.474;7.228;2023-02-15T03:37:51;3.00;92.80
50969;DHT22;36982;51.474;7.228;2023-02-15T03:40:28;3.00;90.90
50969;DHT22;36982;51.474;7.228;2023-02-15T03:43:19;3.00;92.00
50969;DHT22;36982;51.474;7.228;2023-02-15T03:45:51;3.10;92.00
50969;DHT22;36982;51.474;7.228;2023-02-15T03:48:28;3.10;90.10
50969;DHT22;36982;51.474;7.228;2023-02-15T03:50:58;3.00;91.50
50969;DHT22;36982;51.474;7.228;2023-02-15T03:53:45;3.20;90.90
50969;DHT22;36982;51.474;7.228;2023-02-15T03:56:12;3.20;85.60
50969;DHT22;36982;51.474;7.228;2023-02-15T03:58:37;3.20;84.60
50969;DHT22;36982;51.474;7.228;2023-02-15T04:01:34;3.20;86.70
50969;DHT22;36982;51.474;7.228;2023-02-15T04:04:21;3.20;86.30
50969;DHT22;36982;51.474;7.228;2023-02-15T04:06:47;3.10;82.80
50969;DHT22;36982;51.474;7.228;2023-02-15T04:09:14;3.00;84.50
50969;DHT22;36982;51.474;7.228;2023-02-15T04:11:58;2.80;88.10
50969;DHT22;36982;51.474;7.228;2023-02-15T04:14:24;2.90;89.50
50969;DHT22;36982;51.474;7.228;2023-02-15T04:17:09;2.90;83.10
50969;DHT22;36982;51.474;7.228;2023-02-15T04:19:35;2.80;88.50
50969;DHT22;36982;51.474;7.228;2023-02-15T04:22:19;2.80;89.10
50969;DHT22;36982;51.474;7.228;2023-02-15T04:25:04;2.80;89.20
50969;DHT22;36982;51.474;7.228;2023-02-15T04:27:40;2.70;90.70
50969;DHT22;36982;51.474;7.228;2023-02-15T04:30:07;2.70;91.70
50969;DHT22;36982;51.474;7.228;2023-02-15T04:32:34;2.80;89.10
50969;DHT22;36982;51.474;7.228;2023-02-15T04:35:00;2.80;87.60
50969;DHT22;36982;51.474;7.228;2023-02-15T04:37:25;2.80;84.50
50969;DHT22;36982;51.474;7.228;2023-02-15T04:39:51;2.60;90.40
50969;DHT22;36982;51.474;7.228;2023-02-15T04:42:16;2.60;90.20
50969;DHT22;36982;51.474;7.228;2023-02-15T04:44:42;2.50;91.90
50969;DHT22;36982;51.474;7.228;2023-02-15T04:47:08;2.50;92.40
50969;DHT22;36982;51.474;7.228;2023-02-15T04:49:34;2.40;93.20
50969;DHT22;36982;51.474;7.228;2023-02-15T04:51:59;2.50;94.70
50969;DHT22;36982;51.474;7.228;2023-02-15T04:54:25;2.60;92.70
50969;DHT22;36982;51.474;7.228;2023-02-15T04:56:50;2.60;91.80
50969;DHT22;36982;51.474;7.228;2023-02-15T04:59:16;2.70;91.40
50969;DHT22;36982;51.474;7.228;2023-02-15T05:01:42;2.70;91.20
50969;DHT22;36982;51.474;7.228;2023-02-15T05:04:07;2.60;91.00
50969;DHT22;36982;51.474;7.228;2023-02-15T05:06:33;2.60;91.10
50969;DHT22;36982;51.474;7.228;2023-02-15T05:08:58;2.60;91.10
50969;DHT22;36982;51.474;7.228;2023-02-15T05:11:25;2.60;91.50
50969;DHT22;36982;51.474;7.228;2023-02-15T05:13:50;2.40;92.60
50969;DHT22;36982;51.474;7.228;2023-02-15T05:16:16;2.40;93.80
50969;DHT22;36982;51.474;7.228;2023-02-15T05:18:42;2.40;92.50
50969;DHT22;36982;51.474;7.228;2023-02-15T05:21:08;2.40;92.50
50969;DHT22;36982;51.474;7.228;2023-02-15T05:23:34;2.30;92.80
50969;DHT22;36982;51.474;7.228;2023-02-15T05:25:59;2.30;93.70
50969;DHT22;36982;51.474;7.228;2023-02-15T05:28:43;2.30;95.50
50969;DHT22;36982;51.474;7.228;2023-02-15T05:31:19;2.40;95.30
50969;DHT22;36982;51.474;7.228;2023-02-15T05:33:45;2.40;93.70
50969;DHT22;36982;51.474;7.228;2023-02-15T05:36:10;2.40;93.70
50969;DHT22;36982;51.474;7.228;2023-02-15T05:38:37;2.40;92.30
50969;DHT22;36982;51.474;7.228;2023-02-15T05:41:06;2.40;91.70
50969;DHT22;36982;51.474;7.228;2023-02-15T05:43:32;2.30;92.40
50969;DHT22;36982;51.474;7.228;2023-02-15T05:45:58;2.40;92.80
50969;DHT22;36982;51.474;7.228;2023-02-15T05:48:25;2.40;93.70
50969;DHT22;36982;51.474;7.228;2023-02-15T05:53:24;2.40;93.90
50969;DHT22;36982;51.474;7.228;2023-02-15T05:55:49;2.40;92.20
50969;DHT22;36982;51.474;7.228;2023-02-15T05:58:15;2.40;91.30
50969;DHT22;36982;51.474;7.228;2023-02-15T06:00:40;2.20;92.60
50969;DHT22;36982;51.474;7.228;2023-02-15T06:03:06;2.10;94.00
50969;DHT22;36982;51.474;7.228;2023-02-15T06:05:31;2.10;95.30
50969;DHT22;36982;51.474;7.228;2023-02-15T06:07:57;2.20;95.60
50969;DHT22;36982;51.474;7.228;2023-02-15T06:10:23;2.20;94.90
50969;DHT22;36982;51.474;7.228;2023-02-15T06:12:48;2.20;96.50
50969;DHT22;36982;51.474;7.228;2023-02-15T06:15:14;2.20;96.50
50969;DHT22;36982;51.474;7.228;2023-02-15T06:17:41;2.30;95.70
50969;DHT22;36982;51.474;7.228;2023-02-15T06:20:08;2.10;94.90
50969;DHT22;36982;51.474;7.228;2023-02-15T06:22:34;2.20;97.20
50969;DHT22;36982;51.474;7.228;2023-02-15T06:24:59;2.20;97.60
50969;DHT22;36982;51.474;7.228;2023-02-15T06:27:25;2.40;96.80
50969;DHT22;36982;51.474;7.228;2023-02-15T06:29:51;2.40;95.20
50969;DHT22;36982;51.474;7.228;2023-02-15T06:32:16;2.40;95.70
50969;DHT22;36982;51.474;7.228;2023-02-15T06:34:42;2.40;95.70
50969;DHT22;36982;51.474;7.228;2023-02-15T06:37:07;2.50;96.20
50969;DHT22;36982;51.474;7.228;2023-02-15T06:39:33;2.50;96.30
50969;DHT22;36982;51.474;7.228;2023-02-15T06:41:59;2.50;97.40
50969;DHT22;36982;51.474;7.228;2023-02-15T06:44:25;2.50;97.90
50969;DHT22;36982;51.474;7.228;2023-02-15T06:46:50;2.50;98.60
50969;DHT22;36982;51.474;7.228;2023-02-15T06:49:16;2.70;97.50
50969;DHT22;36982;51.474;7.228;2023-02-15T06:51:41;2.80;95.70
50969;DHT22;36982;51.474;7.228;2023-02-15T06:54:07;2.80;94.40
50969;DHT22;36982;51.474;7.228;2023-02-15T06:56:33;2.80;94.10
50969;DHT22;36982;51.474;7.228;2023-02-15T06:58:58;2.80;93.20
50969;DHT22;36982;51.474;7.228;2023-02-15T07:01:24;2.80;93.30
50969;DHT22;36982;51.474;7.228;2023-02-15T07:03:50;2.90;93.60
50969;DHT22;36982;51.474;7.228;2023-02-15T07:06:15;3.00;92.80
50969;DHT22;36982;51.474;7.228;2023-02-15T07:08:41;3.00;92.00
50969;DHT22;36982;51.474;7.228;2023-02-15T07:11:06;3.00;92.00
50969;DHT22;36982;51.474;7.228;2023-02-15T07:13:51;3.00;91.30
50969;DHT22;36982;51.474;7.228;2023-02-15T07:16:18;2.90;91.40
50969;DHT22;36982;51.474;7.228;2023-02-15T07:18:44;2.90;91.90
50969;DHT22;36982;51.474;7.228;2023-02-15T07:21:09;3.00;91.50
50969;DHT22;36982;51.474;7.228;2023-02-15T07:23:36;2.90;92.40
50969;DHT22;36982;51.474;7.228;2023-02-15T07:26:01;3.10;91.20
50969;DHT22;36982;51.474;7.228;2023-02-15T07:28:28;3.10;90.20
50969;DHT22;36982;51.474;7.228;2023-02-15T07:30:53;3.10;89.00
50969;DHT22;36982;51.474;7.228;2023-02-15T07:33:19;3.10;90.40
50969;DHT22;36982;51.474;7.228;2023-02-15T07:35:49;3.10;90.80
50969;DHT22;36982;51.474;7.228;2023-02-15T07:38:15;3.20;90.80
50969;DHT22;36982;51.474;7.228;2023-02-15T07:40:41;3.10;91.80
50969;DHT22;36982;51.474;7.228;2023-02-15T07:43:07;3.20;90.50
50969;DHT22;36982;51.474;7.228;2023-02-15T07:45:33;3.20;89.20
50969;DHT22;36982;51.474;7.228;2023-02-15T07:48:00;3.20;90.70
50969;DHT22;36982;51.474;7.228;2023-02-15T07:50:26;3.20;91.70
50969;DHT22;36982;51.474;7.228;2023-02-15T07:52:51;3.20;91.10
50969;DHT22;36982;51.474;7.228;2023-02-15T07:55:17;3.30;91.20
50969;DHT22;36982;51.474;7.228;2023-02-15T07:57:48;3.30;91.40
50969;DHT22;36982;51.474;7.228;2023-02-15T08:00:16;3.40;91.10
50969;DHT22;36982;51.474;7.228;2023-02-15T08:02:49;3.40;90.70
50969;DHT22;36982;51.474;7.228;2023-02-15T08:05:34;3.40;91.60
50969;DHT22;36982;51.474;7.228;2023-02-15T08:08:00;3.50;92.00
50969;DHT22;36982;51.474;7.228;2023-02-15T08:10:25;3.60;91.20
50969;DHT22;36982;51.474;7.228;2023-02-15T08:13:11;3.60;90.20
50969;DHT22;36982;51.474;7.228;2023-02-15T08:15:37;3.70;91.50
50969;DHT22;36982;51.474;7.228;2023-02-15T08:18:02;3.70;91.30
50969;DHT22;36982;51.474;7.228;2023-02-15T08:20:28;3.80;91.70
50969;DHT22;36982;51.474;7.228;2023-02-15T08:22:53;3.90;91.20
50969;DHT22;36982;51.474;7.228;2023-02-15T08:25:19;3.90;92.90
50969;DHT22;36982;51.474;7.228;2023-02-15T08:27:45;4.10;89.80
50969;DHT22;36982;51.474;7.228;2023-02-15T08:30:11;4.20;82.70
50969;DHT22;36982;51.474;7.228;2023-02-15T08:32:37;4.30;83.10
50969;DHT22;36982;51.474;7.228;2023-02-15T08:35:02;4.40;80.30
50969;DHT22;36982;51.474;7.228;2023-02-15T08:37:28;4.50;76.10
50969;DHT22;36982;51.474;7.228;2023-02-15T08:39:54;4.60;71.40
50969;DHT22;36982;51.474;7.228;2023-02-15T08:42:19;4.80;63.70
50969;DHT22;36982;51.474;7.228;2023-02-15T08:44:46;4.90;56.00
50969;DHT22;36982;51.474;7.228;2023-02-15T08:47:12;5.00;51.80
50969;DHT22;36982;51.474;7.228;2023-02-15T08:49:37;5.00;57.90
50969;DHT22;36982;51.474;7.228;2023-02-15T08:52:03;5.10;46.10
50969;DHT22;36982;51.474;7.228;2023-02-15T08:54:28;5.30;40.00
50969;DHT22;36982;51.474;7.228;2023-02-15T08:56:54;5.30;42.60
50969;DHT22;36982;51.474;7.228;2023-02-15T08:59:22;5.50;28.40
50969;DHT22;36982;51.474;7.228;2023-02-15T09:01:50;5.60;25.40
50969;DHT22;36982;51.474;7.228;2023-02-15T09:04:16;5.70;17.80
50969;DHT22;36982;51.474;7.228;2023-02-15T09:06:43;5.80;17.80
50969;DHT22;36982;51.474;7.228;2023-02-15T09:09:10;5.90;7.30
50969;DHT22;36982;51.474;7.228;2023-02-15T09:11:39;6.20;1.00
50969;DHT22;36982;51.474;7.228;2023-02-15T09:14:07;6.10;1.00
50969;DHT22;36982;51.474;7.228;2023-02-15T09:16:35;6.10;1.00
50969;DHT22;36982;51.474;7.228;2023-02-15T09:19:02;6.20;1.00
50969;DHT22;36982;51.474;7.228;2023-02-15T09:21:30;6.20;1.00
50969;DHT22;36982;51.474;7.228;2023-02-15T09:23:58;6.30;1.00
50969;DHT22;36982;51.474;7.228;2023-02-15T09:26:26;6.30;1.00
50969;DHT22;36982;51.474;7.228;2023-02-15T09:28:54;6.40;1.00
50969;DHT22;36982;51.474;7.228;2023-02-15T09:31:29;6.60;1.00
50969;DHT22;36982;51.474;7.228;2023-02-15T09:33:55;6.90;1.00
50969;DHT22;36982;51.474;7.228;2023-02-15T09:36:27;7.10;1.00
50969;DHT22;36982;51.474;7.228;2023-02-15T09:38:58;7.10;1.00
50969;DHT22;36982;51.474;7.228;2023-02-15T09:41:50;7.10;1.00
50969;DHT22;36982;51.474;7.228;2023-02-15T09:47:22;7.40;99.90
50969;DHT22;36982;51.474;7.228;2023-02-15T09:55:36;7.70;99.90
50969;DHT22;36982;51.474;7.228;2023-02-15T10:09:16;8.40;99.90
50969;DHT22;36982;51.474;7.228;2023-02-15T10:17:17;8.70;75.80
50969;DHT22;36982;51.474;7.228;2023-02-15T10:22:26;9.00;99.90
50969;DHT22;36982;51.474;7.228;2023-02-15T10:27:47;9.10;99.90
50969;DHT22;36982;51.474;7.228;2023-02-15T10:30:23;9.20;99.90
50969;DHT22;36982;51.474;7.228;2023-02-15T10:33:01;9.30;99.90
50969;DHT22;36982;51.474;7.228;2023-02-15T10:38:19;9.40;99.90
50969;DHT22;36982;51.474;7.228;2023-02-15T10:46:56;9.60;25.80
50969;DHT22;36982;51.474;7.228;2023-02-15T10:55:17;9.90;1.00
50969;DHT22;36982;51.474;7.228;2023-02-15T11:08:24;10.40;99.90
50969;DHT22;36982;51.474;7.228;2023-02-15T11:10:58;10.60;80.50
50969;DHT22;36982;51.474;7.228;2023-02-15T11:13:29;10.70;99.90
50969;DHT22;36982;51.474;7.228;2023-02-15T11:16:24;10.80;99.90
50969;DHT22;36982;51.474;7.228;2023-02-15T11:19:06;10.90;87.30
50969;DHT22;36982;51.474;7.228;2023-02-15T11:21:43;10.90;1.00
50969;DHT22;36982;51.474;7.228;2023-02-15T11:24:20;10.90;99.90
50969;DHT22;36982;51.474;7.228;2023-02-15T11:27:03;11.00;99.90
50969;DHT22;36982;51.474;7.228;2023-02-15T11:29:40;11.00;58.60
50969;DHT22;36982;51.474;7.228;2023-02-15T11:37:20;11.30;99.90
50969;DHT22;36982;51.474;7.228;2023-02-15T11:39:51;11.30;99.90
50969;DHT22;36982;51.474;7.228;2023-02-15T11:42:21;11.30;10.90
50969;DHT22;36982;51.474;7.228;2023-02-15T11:45:02;11.30;1.00
50969;DHT22;36982;51.474;7.228;2023-02-15T11:47:29;11.50;99.90
50969;DHT22;36982;51.474;7.228;2023-02-15T11:49:56;11.50;99.90
50969;DHT22;36982;51.474;7.228;2023-02-15T11:52:21;11.60;99.90
50969;DHT22;36982;51.474;7.228;2023-02-15T11:54:51;11.80;1.00
50969;DHT22;36982;51.474;7.228;2023-02-15T11:57:28;11.80;1.00
50969;DHT22;36982;51.474;7.228;2023-02-15T12:00:05;11.90;99.90
50969;DHT22;36982;51.474;7.228;2023-02-15T12:02:37;11.90;99.90
50969;DHT22;36982;51.474;7.228;2023-02-15T12:05:12;11.90;99.90
50969;DHT22;36982;51.474;7.228;2023-02-15T12:08:17;12.10;99.90
50969;DHT22;36982;51.474;7.228;2023-02-15T12:13:33;12.00;1.00
50969;DHT22;36982;51.474;7.228;2023-02-15T12:16:05;12.20;1.00
50969;DHT22;36982;51.474;7.228;2023-02-15T12:18:33;12.20;99.90
50969;DHT22;36982;51.474;7.228;2023-02-15T12:21:06;12.20;99.90
50969;DHT22;36982;51.474;7.228;2023-02-15T12:23:32;12.30;99.90
50969;DHT22;36982;51.474;7.228;2023-02-15T12:25:59;12.30;99.90
50969;DHT22;36982;51.474;7.228;2023-02-15T12:31:31;12.40;89.70
50969;DHT22;36982;51.474;7.228;2023-02-15T12:34:00;12.40;6.20
50969;DHT22;36982;51.474;7.228;2023-02-15T12:36:44;12.50;1.00
50969;DHT22;36982;51.474;7.228;2023-02-15T12:39:30;12.50;1.00
50969;DHT22;36982;51.474;7.228;2023-02-15T12:44:33;12.60;1.00
50969;DHT22;36982;51.474;7.228;2023-02-15T12:47:00;12.50;1.00
50969;DHT22;36982;51.474;7.228;2023-02-15T12:49:28;12.50;1.00
50969;DHT22;36982;51.474;7.228;2023-02-15T12:51:59;12.60;1.00
50969;DHT22;36982;51.474;7.228;2023-02-15T12:54:35;12.60;1.00
50969;DHT22;36982;51.474;7.228;2023-02-15T12:59:52;12.70;99.90
50969;DHT22;36982;51.474;7.228;2023-02-15T13:05:18;12.70;99.90
50969;DHT22;36982;51.474;7.228;2023-02-15T13:07:57;12.80;99.90
50969;DHT22;36982;51.474;7.228;2023-02-15T13:10:42;12.80;99.90
50969;DHT22;36982;51.474;7.228;2023-02-15T13:13:31;12.80;99.90
50969;DHT22;36982;51.474;7.228;2023-02-15T13:16:37;12.70;99.90
50969;DHT22;36982;51.474;7.228;2023-02-15T13:19:18;12.80;99.90
50969;DHT22;36982;51.474;7.228;2023-02-15T13:21:47;12.80;99.90
50969;DHT22;36982;51.474;7.228;2023-02-15T13:24:29;12.80;99.90
50969;DHT22;36982;51.474;7.228;2023-02-15T13:26:57;12.90;99.90
50969;DHT22;36982;51.474;7.228;2023-02-15T13:29:28;12.80;99.90
50969;DHT22;36982;51.474;7.228;2023-02-15T13:31:57;12.80;99.90
50969;DHT22;36982;51.474;7.228;2023-02-15T13:34:30;12.70;99.90
50969;DHT22;36982;51.474;7.228;2023-02-15T13:42:50;12.70;99.90
50969;DHT22;36982;51.474;7.228;2023-02-15T13:45:32;12.80;99.90
50969;DHT22;36982;51.474;7.228;2023-02-15T13:59:29;12.70;99.90
50969;DHT22;36982;51.474;7.228;2023-02-15T14:02:07;12.70;99.90
50969;DHT22;36982;51.474;7.228;2023-02-15T14:10:06;12.80;99.90
50969;DHT22;36982;51.474;7.228;2023-02-15T14:21:41;12.90;99.90
50969;DHT22;36982;51.474;7.228;2023-02-15T14:29:57;13.00;99.90
50969;DHT22;36982;51.474;7.228;2023-02-15T14:32:34;13.00;99.90
50969;DHT22;36982;51.474;7.228;2023-02-15T14:35:04;12.90;99.90
50969;DHT22;36982;51.474;7.228;2023-02-15T14:40:19;12.80;99.90
50969;DHT22;36982;51.474;7.228;2023-02-15T14:43:14;12.80;99.90
50969;DHT22;36982;51.474;7.228;2023-02-15T14:51:10;12.90;99.90
50969;DHT22;36982;51.474;7.228;2023-02-15T14:53:37;13.00;99.90
50969;DHT22;36982;51.474;7.228;2023-02-15T14:58:38;12.80;99.90
50969;DHT22;36982;51.474;7.228;2023-02-15T15:01:33;12.80;99.90
50969;DHT22;36982;51.474;7.228;2023-02-15T15:06:32;12.60;99.90
50969;DHT22;36982;51.474;7.228;2023-02-15T15:09:24;12.60;99.90
50969;DHT22;36982;51.474;7.228;2023-02-15T15:12:12;12.60;99.90
50969;DHT22;36982;51.474;7.228;2023-02-15T15:14:41;12.60;99.90
50969;DHT22;36982;51.474;7.228;2023-02-15T15:17:11;12.60;99.90
50969;DHT22;36982;51.474;7.228;2023-02-15T15:22:25;12.50;99.90
50969;DHT22;36982;51.474;7.228;2023-02-15T15:24:56;12.50;99.90
50969;DHT22;36982;51.474;7.228;2023-02-15T15:43:51;12.30;99.90
50969;DHT22;36982;51.474;7.228;2023-02-15T15:49:17;12.50;99.90
50969;DHT22;36982;51.474;7.228;2023-02-15T15:51:44;12.40;99.90
50969;DHT22;36982;51.474;7.228;2023-02-15T15:54:23;12.30;99.90
50969;DHT22;36982;51.474;7.228;2023-02-15T15:56:53;12.40;99.90
50969;DHT22;36982;51.474;7.228;2023-02-15T15:59:30;12.40;99.90
50969;DHT22;36982;51.474;7.228;2023-02-15T16:02:05;12.30;99.90
50969;DHT22;36982;51.474;7.228;2023-02-15T16:04:33;12.30;99.90
50969;DHT22;36982;51.474;7.228;2023-02-15T16:10:05;12.10;99.90
50969;DHT22;36982;51.474;7.228;2023-02-15T16:12:46;12.20;99.90
50969;DHT22;36982;51.474;7.228;2023-02-15T16:15:22;12.10;99.90
50969;DHT22;36982;51.474;7.228;2023-02-15T16:17:54;12.10;99.90
50969;DHT22;36982;51.474;7.228;2023-02-15T16:20:35;12.00;99.90
50969;DHT22;36982;51.474;7.228;2023-02-15T16:28:11;11.80;99.90
50969;DHT22;36982;51.474;7.228;2023-02-15T16:30:38;11.60;99.90
50969;DHT22;36982;51.474;7.228;2023-02-15T16:33:15;11.40;99.90
50969;DHT22;36982;51.474;7.228;2023-02-15T16:35:56;11.20;99.90
50969;DHT22;36982;51.474;7.228;2023-02-15T16:41:06;11.20;99.90
50969;DHT22;36982;51.474;7.228;2023-02-15T16:43:32;10.90;99.90
50969;DHT22;36982;51.474;7.228;2023-02-15T16:46:04;10.90;99.90
50969;DHT22;36982;51.474;7.228;2023-02-15T16:48:32;10.90;99.90
50969;DHT22;36982;51.474;7.228;2023-02-15T16:50:59;10.90;1.00
50969;DHT22;36982;51.474;7.228;2023-02-15T16:53:27;10.80;1.00
50969;DHT22;36982;51.474;7.228;2023-02-15T16:55:59;10.60;1.00
50969;DHT22;36982;51.474;7.228;2023-02-15T16:58:45;10.50;1.00
50969;DHT22;36982;51.474;7.228;2023-02-15T17:01:15;10.50;1.00
50969;DHT22;36982;51.474;7.228;2023-02-15T17:03:42;10.50;13.60
50969;DHT22;36982;51.474;7.228;2023-02-15T17:06:27;10.50;3.40
50969;DHT22;36982;51.474;7.228;2023-02-15T17:09:03;10.30;51.30
50969;DHT22;36982;51.474;7.228;2023-02-15T17:11:36;10.20;75.70
50969;DHT22;36982;51.474;7.228;2023-02-15T17:16:42;10.30;99.90
50969;DHT22;36982;51.474;7.228;2023-02-15T17:19:15;10.10;99.90
50969;DHT22;36982;51.474;7.228;2023-02-15T17:21:52;10.00;99.90
50969;DHT22;36982;51.474;7.228;2023-02-15T17:24:39;9.80;99.90
50969;DHT22;36982;51.474;7.228;2023-02-15T17:27:12;9.80;1.00
50969;DHT22;36982;51.474;7.228;2023-02-15T17:29:40;9.70;1.00
50969;DHT22;36982;51.474;7.228;2023-02-15T17:32:16;9.60;99.10
50969;DHT22;36982;51.474;7.228;2023-02-15T17:40:07;9.70;1.00
50969;DHT22;36982;51.474;7.228;2023-02-15T17:42:35;9.60;99.90
50969;DHT22;36982;51.474;7.228;2023-02-15T17:45:01;9.70;99.90
50969;DHT22;36982;51.474;7.228;2023-02-15T17:47:26;9.70;99.90
50969;DHT22;36982;51.474;7.228;2023-02-15T17:49:54;9.80;99.90
50969;DHT22;36982;51.474;7.228;2023-02-15T17:52:20;9.90;96.00
50969;DHT22;36982;51.474;7.228;2023-02-15T17:54:45;9.70;99.90
50969;DHT22;36982;51.474;7.228;2023-02-15T17:57:30;9.70;99.90
50969;DHT22;36982;51.474;7.228;2023-02-15T17:59:56;9.70;99.90
50969;DHT22;36982;51.474;7.228;2023-02-15T18:02:41;9.80;99.90
50969;DHT22;36982;51.474;7.228;2023-02-15T18:05:25;9.80;99.90
50969;DHT22;36982;51.474;7.228;2023-02-15T18:08:24;9.80;99.90
50969;DHT22;36982;51.474;7.228;2023-02-15T18:11:09;9.90;64.90
50969;DHT22;36982;51.474;7.228;2023-02-15T18:13:54;9.90;6.10
50969;DHT22;36982;51.474;7.228;2023-02-15T18:16:24;9.80;7.00
50969;DHT22;36982;51.474;7.228;2023-02-15T18:18:51;9.80;61.20
50969;DHT22;36982;51.474;7.228;2023-02-15T18:21:17;9.90;32.20
50969;DHT22;36982;51.474;7.228;2023-02-15T18:23:43;9.80;95.70
50969;DHT22;36982;51.474;7.228;2023-02-15T18:26:16;9.90;34.80
50969;DHT22;36982;51.474;7.228;2023-02-15T18:28:42;9.80;87.80
50969;DHT22;36982;51.474;7.228;2023-02-15T18:31:07;9.80;34.30
50969;DHT22;36982;51.474;7.228;2023-02-15T18:33:36;9.80;97.00
50969;DHT22;36982;51.474;7.228;2023-02-15T18:36:05;9.80;99.90
50969;DHT22;36982;51.474;7.228;2023-02-15T18:38:31;9.70;99.90
50969;DHT22;36982;51.474;7.228;2023-02-15T18:40:57;9.60;99.90
50969;DHT22;36982;51.474;7.228;2023-02-15T18:43:23;9.60;99.90
50969;DHT22;36982;51.474;7.228;2023-02-15T18:45:49;9.50;99.90
50969;DHT22;36982;51.474;7.228;2023-02-15T18:48:15;9.60;99.90
50969;DHT22;36982;51.474;7.228;2023-02-15T18:50:40;9.50;99.90
50969;DHT22;36982;51.474;7.228;2023-02-15T18:53:14;9.50;1.00
50969;DHT22;36982;51.474;7.228;2023-02-15T18:55:42;9.40;1.00
50969;DHT22;36982;51.474;7.228;2023-02-15T18:58:17;9.30;67.90
50969;DHT22;36982;51.474;7.228;2023-02-15T19:00:43;9.10;1.00
50969;DHT22;36982;51.474;7.228;2023-02-15T19:03:12;9.10;99.90
50969;DHT22;36982;51.474;7.228;2023-02-15T19:05:37;9.10;99.90
50969;DHT22;36982;51.474;7.228;2023-02-15T19:08:04;9.00;99.90
50969;DHT22;36982;51.474;7.228;2023-02-15T19:10:36;9.00;1.00
50969;DHT22;36982;51.474;7.228;2023-02-15T19:13:02;8.90;99.90
50969;DHT22;36982;51.474;7.228;2023-02-15T19:15:28;8.90;1.00
50969;DHT22;36982;51.474;7.228;2023-02-15T19:17:54;8.90;24.30
50969;DHT22;36982;51.474;7.228;2023-02-15T19:20:25;8.80;99.90
50969;DHT22;36982;51.474;7.228;2023-02-15T19:22:54;8.80;99.90
50969;DHT22;36982;51.474;7.228;2023-02-15T19:25:29;8.70;1.00